KMHT/MHT METAR and TAF weather

Enter ICAO airport designator
Station Type Date Time Source
KMHT METAR 2019/08/25 01:53 UTC NOAA

KMHT 250153Z 03003KT 10SM FEW060 18/13 A3029 RMK AO2 SLP267 T01780133 $


Station Type Date Time Source
KMHT Decoded METAR 2019/08/25 01:53 UTC NOAA

Station name not available
Aug 24, 2019 - 09:53 PM EDT / 2019.08.25 0153 UTC
Wind: from the NNE (030 degrees) at 3 MPH (3 KT):0
Visibility: 10 mile(s):0
Sky conditions: mostly clear
Temperature: 64.0 F (17.8 C)
Dew Point: 55.9 F (13.3 C)
Relative Humidity: 74%
Pressure (altimeter): 30.29 in. Hg (1025 hPa)
ob: KMHT 250153Z 03003KT 10SM FEW060 18/13 A3029 RMK AO2 SLP267 T01780133
cycle: 2

Station Type Date Time Source
KMHT TAF 2019/08/24 18:24 UTC NOAA

TAF KMHT 241722Z 2418/2518 05008KT P6SM BKN045
FM250200 04003KT P6SM SCT040
FM251400 03012KT P6SM SCT040

Example: see airport list